Time;durP1;ratioP1;P1;durP2;ratioP2;P2;SDS_P1;SDS_P2;PMS_P1;PMS_P2;Temp;Humidity;BMP_temperature;BMP_pressure;BME280_temperature;BME280_humidity;BME280_pressure;Samples;Min_cycle;Max_cycle;Signal;HPM_P1;HPM_P2
2024/04/09 00:00:35;;;;;;;4.78;2.53;;;22.60;65.70;;;;;;5263346;26;85459;-71
2024/04/09 00:03:01;;;;;;;3.33;2.03;;;22.50;65.00;;;;;;5262908;26;84476;-72
2024/04/09 00:05:31;;;;;;;4.68;3.03;;;22.50;64.90;;;;;;5262892;26;84876;-72
2024/04/09 00:08:00;;;;;;;4.35;2.10;;;22.50;64.90;;;;;;5261134;26;88373;-72
2024/04/09 00:10:30;;;;;;;4.78;2.08;;;22.50;64.80;;;;;;5260612;26;86115;-72
2024/04/09 00:12:58;;;;;;;3.13;1.63;;;22.50;65.00;;;;;;5259099;26;84975;-72
2024/04/09 00:15:24;;;;;;;5.13;2.38;;;22.50;64.80;;;;;;5261749;26;85634;-72
2024/04/09 00:17:56;;;;;;;4.57;2.58;;;22.50;64.70;;;;;;5261676;26;84945;-72
2024/04/09 00:20:24;;;;;;;5.57;2.55;;;22.50;64.80;;;;;;5260296;26;85567;-72
2024/04/09 00:22:55;;;;;;;4.13;2.42;;;22.50;65.00;;;;;;5263820;26;84613;-72
2024/04/09 00:25:25;;;;;;;3.97;1.90;;;22.50;65.00;;;;;;5264005;26;84858;-72
2024/04/09 00:27:54;;;;;;;4.63;2.83;;;22.40;65.20;;;;;;5260835;26;85739;-72
2024/04/09 00:30:21;;;;;;;;;;;22.50;65.10;;;;;;5257684;26;84897;-72
2024/04/09 00:32:51;;;;;;;4.35;1.70;;;22.40;65.00;;;;;;5260022;26;84908;-72
2024/04/09 00:35:18;;;;;;;4.28;1.77;;;22.40;65.00;;;;;;5262182;26;84703;-72
2024/04/09 00:37:45;;;;;;;3.85;2.55;;;22.40;64.90;;;;;;5265459;26;86215;-72
2024/04/09 00:40:10;;;;;;;4.00;2.20;;;22.40;64.90;;;;;;5262298;26;85779;-72
2024/04/09 00:42:37;;;;;;;3.22;2.13;;;22.40;64.90;;;;;;5287909;26;85042;-72
2024/04/09 00:45:07;;;;;;;4.20;2.03;;;22.40;64.90;;;;;;5262296;26;84630;-72
2024/04/09 00:47:38;;;;;;;3.10;1.80;;;22.40;64.80;;;;;;5291328;26;86395;-73
2024/04/09 00:50:06;;;;;;;3.72;1.95;;;22.40;65.00;;;;;;5264547;26;85013;-72
2024/04/09 00:52:37;;;;;;;3.45;1.83;;;22.40;64.80;;;;;;5266242;26;84282;-72
2024/04/09 00:55:04;;;;;;;3.30;1.83;;;22.40;65.00;;;;;;5265948;26;84620;-71
2024/04/09 00:57:33;;;;;;;3.75;1.95;;;22.40;64.90;;;;;;5292065;26;86030;-71
2024/04/09 00:59:59;;;;;;;4.80;2.10;;;22.40;64.80;;;;;;5264839;26;85228;-71
2024/04/09 01:02:28;;;;;;;3.53;2.08;;;22.40;64.90;;;;;;5234456;26;85002;-71
2024/04/09 01:04:56;;;;;;;4.65;1.77;;;22.40;64.70;;;;;;5263900;26;84980;-72
2024/04/09 01:07:22;;;;;;;4.53;1.73;;;22.40;65.00;;;;;;5263708;26;85683;-71
2024/04/09 01:09:48;;;;;;;3.83;2.05;;;22.40;64.90;;;;;;5261932;26;85732;-71
2024/04/09 01:12:13;;;;;;;3.78;2.35;;;22.40;64.90;;;;;;5291570;26;84922;-71
2024/04/09 01:14:39;;;;;;;3.40;1.70;;;22.40;65.20;;;;;;5263682;26;84820;-71
2024/04/09 01:17:05;;;;;;;4.95;1.88;;;22.40;65.10;;;;;;5265609;26;85733;-71
2024/04/09 01:19:32;;;;;;;3.08;2.17;;;22.30;65.30;;;;;;5265976;26;85368;-72
2024/04/09 01:21:58;;;;;;;5.15;1.95;;;22.40;64.90;;;;;;5264829;26;84550;-72
2024/04/09 01:24:24;;;;;;;4.32;2.33;;;22.40;65.00;;;;;;5264408;26;84634;-72
2024/04/09 01:26:52;;;;;;;3.90;1.95;;;22.30;64.70;;;;;;5264318;26;85589;-72
2024/04/09 01:29:18;;;;;;;3.90;2.00;;;22.30;64.80;;;;;;5263170;26;84968;-73
2024/04/09 01:31:44;;;;;;;2.72;1.60;;;22.40;64.80;;;;;;5265257;26;85058;-73
2024/04/09 01:34:11;;;;;;;4.97;2.25;;;22.30;64.90;;;;;;5264758;26;84480;-72
2024/04/09 01:36:37;;;;;;;3.13;2.15;;;22.40;64.60;;;;;;5268248;26;85718;-72
2024/04/09 01:39:08;;;;;;;3.40;1.63;;;22.40;64.70;;;;;;5265685;26;84861;-72
2024/04/09 01:41:37;;;;;;;2.40;1.30;;;22.30;64.60;;;;;;5264490;26;84837;-72
2024/04/09 01:44:03;;;;;;;;;;;22.30;64.60;;;;;;5265773;26;84416;-73
2024/04/09 01:46:29;;;;;;;5.25;2.30;;;22.30;64.60;;;;;;5264395;26;85842;-73
2024/04/09 01:48:54;;;;;;;2.75;1.67;;;22.30;64.40;;;;;;5263427;26;85561;-73
2024/04/09 01:51:20;;;;;;;6.38;2.30;;;22.30;64.50;;;;;;5265526;26;84742;-72
2024/04/09 01:53:50;;;;;;;3.10;1.95;;;22.30;64.70;;;;;;5263895;26;84272;-73
2024/04/09 01:56:17;;;;;;;5.75;2.30;;;22.30;64.60;;;;;;5264583;26;84404;-73
2024/04/09 01:58:43;;;;;;;2.65;1.38;;;22.30;64.60;;;;;;5264809;26;84662;-73
2024/04/09 02:01:09;;;;;;;3.45;1.80;;;22.30;64.60;;;;;;5264189;26;84879;-73
2024/04/09 02:03:39;;;;;;;5.15;2.25;;;22.30;64.50;;;;;;5264821;26;84861;-72
2024/04/09 02:06:14;;;;;;;4.18;1.50;;;22.30;64.30;;;;;;5263941;26;85357;-72
2024/04/09 02:08:41;;;;;;;3.35;1.60;;;22.30;64.50;;;;;;5262503;26;86019;-72
2024/04/09 02:11:12;;;;;;;2.28;1.48;;;22.30;64.60;;;;;;5263777;26;85236;-72
2024/04/09 02:13:41;;;;;;;3.38;1.65;;;22.30;64.60;;;;;;5264922;26;84572;-72
2024/04/09 02:16:08;;;;;;;5.53;1.83;;;22.20;64.20;;;;;;5260513;26;85604;-72
2024/04/09 02:18:36;;;;;;;1.83;1.45;;;22.30;64.50;;;;;;5290457;26;86105;-74
2024/04/09 02:21:03;;;;;;;4.30;1.65;;;22.30;64.50;;;;;;5264877;26;84543;-72
2024/04/09 02:23:29;;;;;;;3.42;1.70;;;22.30;64.50;;;;;;5264709;26;85105;-72
2024/04/09 02:25:56;;;;;;;5.25;1.98;;;22.30;64.40;;;;;;5291597;26;86084;-73
2024/04/09 02:28:22;;;;;;;2.78;1.60;;;22.30;64.40;;;;;;5264786;26;84906;-73
2024/04/09 02:30:48;;;;;;;2.78;1.60;;;22.30;64.60;;;;;;5264586;26;85846;-72
2024/04/09 02:33:17;;;;;;;3.08;1.80;;;22.30;64.30;;;;;;5274272;26;85363;-72
2024/04/09 02:36:06;;;;;;;2.30;1.50;;;22.30;64.20;;;;;;5263648;26;85765;-73
2024/04/09 02:38:37;;;;;;;3.97;1.85;;;22.30;64.30;;;;;;5264258;26;84786;-72
2024/04/09 02:41:06;;;;;;;3.05;2.08;;;22.20;64.30;;;;;;5266006;26;85011;-72
2024/04/09 02:43:34;;;;;;;3.05;1.63;;;22.20;64.20;;;;;;5263058;26;85159;-72
2024/04/09 02:46:00;;;;;;;2.30;1.63;;;22.20;64.10;;;;;;5264130;26;85732;-73
2024/04/09 02:48:27;;;;;;;1.60;1.40;;;22.20;64.10;;;;;;5263333;26;84443;-73
2024/04/09 02:50:55;;;;;;;4.38;1.65;;;22.20;64.40;;;;;;5261065;26;84660;-74
2024/04/09 02:53:21;;;;;;;3.60;1.92;;;22.20;64.60;;;;;;5260554;26;84681;-73
2024/04/09 02:55:47;;;;;;;2.78;1.92;;;22.20;64.40;;;;;;5264406;26;84441;-73
2024/04/09 02:58:13;;;;;;;2.47;1.50;;;22.20;64.40;;;;;;5260925;26;85316;-73
2024/04/09 03:00:40;;;;;;;2.38;1.40;;;22.20;64.40;;;;;;5264174;26;84581;-73
2024/04/09 03:03:06;;;;;;;1.95;1.40;;;22.20;64.30;;;;;;5264534;26;85050;-71
2024/04/09 03:05:34;;;;;;;2.60;1.65;;;22.20;64.10;;;;;;5264968;26;87053;-71
2024/04/09 03:08:00;;;;;;;2.50;1.48;;;22.20;64.90;;;;;;5259741;26;84989;-71
2024/04/09 03:10:26;;;;;;;2.33;1.70;;;22.20;64.10;;;;;;5262787;26;84999;-71
2024/04/09 03:12:52;;;;;;;2.90;1.58;;;22.20;64.50;;;;;;5260568;26;85135;-71
2024/04/09 03:15:18;;;;;;;2.28;1.60;;;22.20;64.10;;;;;;5287895;26;86231;-71
2024/04/09 03:17:44;;;;;;;2.95;1.35;;;22.20;64.40;;;;;;5263838;26;84686;-71
2024/04/09 03:20:10;;;;;;;2.60;1.35;;;22.10;64.00;;;;;;5265693;26;84779;-71
2024/04/09 03:22:37;;;;;;;2.45;1.65;;;22.20;63.90;;;;;;5265909;26;84633;-71
2024/04/09 03:25:03;;;;;;;3.42;1.70;;;22.20;64.00;;;;;;5265052;26;85661;-71
2024/04/09 03:27:29;;;;;;;2.28;1.67;;;22.20;64.00;;;;;;5290488;26;87617;-71
2024/04/09 03:29:57;;;;;;;2.30;1.23;;;22.20;64.20;;;;;;5264790;26;85200;-71
2024/04/09 03:32:23;;;;;;;2.50;1.35;;;22.20;64.30;;;;;;5264443;26;84628;-71
2024/04/09 03:34:49;;;;;;;3.00;1.83;;;22.10;64.30;;;;;;5260960;26;85769;-71
2024/04/09 03:37:15;;;;;;;2.03;1.70;;;22.20;64.30;;;;;;5264972;26;85088;-71
2024/04/09 03:39:42;;;;;;;2.13;1.50;;;22.10;64.50;;;;;;5262032;26;84857;-71
2024/04/09 03:42:08;;;;;;;1.63;1.30;;;22.10;64.50;;;;;;5257907;26;84443;-71
2024/04/09 03:44:34;;;;;;;3.20;1.45;;;22.10;64.10;;;;;;5264460;26;84995;-71
2024/04/09 03:47:04;;;;;;;2.10;1.83;;;22.10;63.90;;;;;;5260805;26;86067;-71
2024/04/09 03:49:30;;;;;;;3.72;1.60;;;22.10;64.50;;;;;;5264692;26;85129;-70
2024/04/09 03:51:56;;;;;;;3.22;1.50;;;22.10;64.20;;;;;;5261706;26;84852;-72
2024/04/09 03:54:23;;;;;;;2.58;1.55;;;22.10;64.20;;;;;;5261103;26;84978;-71
2024/04/09 03:56:49;;;;;;;1.98;1.42;;;22.10;64.20;;;;;;5289777;26;84551;-71
2024/04/09 03:59:15;;;;;;;2.78;1.48;;;22.10;64.20;;;;;;5261151;26;85331;-72
2024/04/09 04:01:41;;;;;;;2.78;1.35;;;22.10;64.10;;;;;;5263450;26;85003;-72
2024/04/09 04:04:06;;;;;;;2.70;1.60;;;22.10;64.00;;;;;;5259929;26;85621;-70
2024/04/09 04:06:32;;;;;;;2.55;1.42;;;22.10;63.90;;;;;;5262425;26;85942;-70
2024/04/09 04:08:58;;;;;;;1.73;1.27;;;22.10;63.80;;;;;;5260573;26;84942;-71
2024/04/09 04:11:24;;;;;;;1.88;1.30;;;22.10;64.00;;;;;;5262857;26;85072;-73
2024/04/09 04:13:50;;;;;;;3.53;1.67;;;22.10;63.90;;;;;;5264890;26;85889;-73
2024/04/09 04:16:18;;;;;;;1.55;1.17;;;22.10;63.80;;;;;;5265085;26;84795;-73
2024/04/09 04:18:47;;;;;;;2.20;1.48;;;22.10;64.10;;;;;;5265739;26;84941;-73
2024/04/09 04:21:14;;;;;;;;;;;22.10;63.90;;;;;;5266676;26;84643;-73
2024/04/09 04:23:42;;;;;;;1.67;1.20;;;22.10;63.90;;;;;;5266012;26;86396;-73
2024/04/09 04:26:09;;;;;;;2.15;1.10;;;22.10;63.70;;;;;;5271019;26;84397;-72
2024/04/09 04:28:37;;;;;;;2.15;1.23;;;22.10;63.70;;;;;;5266288;26;84955;-72
2024/04/09 04:31:11;;;;;;;5.55;1.20;;;22.10;63.80;;;;;;5266165;26;84967;-72
2024/04/09 04:33:40;;;;;;;2.88;1.27;;;22.10;63.40;;;;;;5265065;26;85727;-72
2024/04/09 04:36:06;;;;;;;;;;;22.10;63.40;;;;;;5264843;26;85206;-72
2024/04/09 04:38:32;;;;;;;1.85;1.23;;;22.00;63.30;;;;;;5263780;26;84837;-72
2024/04/09 04:40:59;;;;;;;3.00;1.58;;;22.10;63.40;;;;;;5265158;26;85002;-72
2024/04/09 04:43:25;;;;;;;2.75;1.50;;;22.10;63.30;;;;;;5267219;26;85756;-72
2024/04/09 04:46:00;;;;;;;1.50;1.35;;;22.10;63.20;;;;;;5262084;26;85914;-72
2024/04/09 04:48:27;;;;;;;2.65;1.65;;;22.10;63.20;;;;;;5264575;26;85217;-72
2024/04/09 04:50:54;;;;;;;2.67;1.55;;;22.10;63.10;;;;;;5290093;26;84848;-72
2024/04/09 04:53:20;;;;;;;4.97;1.98;;;22.10;63.30;;;;;;5265722;26;85579;-72
2024/04/09 04:55:47;;;;;;;2.70;1.75;;;22.10;63.30;;;;;;5265339;26;85130;-72
2024/04/09 04:58:13;;;;;;;1.60;1.08;;;22.10;63.20;;;;;;5264782;26;85730;-72
2024/04/09 05:00:42;;;;;;;1.88;1.38;;;22.10;62.90;;;;;;5262961;26;84834;-72
2024/04/09 05:03:09;;;;;;;2.05;1.30;;;22.10;63.00;;;;;;5266011;26;85242;-72
2024/04/09 05:05:35;;;;;;;2.13;1.30;;;22.10;63.10;;;;;;5264013;26;86331;-72
2024/04/09 05:08:02;;;;;;;3.83;1.63;;;22.10;63.20;;;;;;5265137;26;84699;-71
2024/04/09 05:10:28;;;;;;;2.08;1.20;;;22.00;63.20;;;;;;5263742;26;85572;-72
2024/04/09 05:12:55;;;;;;;1.23;1.00;;;22.10;63.00;;;;;;5291965;26;86886;-71
2024/04/09 05:15:21;;;;;;;2.75;1.17;;;22.10;63.20;;;;;;5265664;26;84392;-71
2024/04/09 05:17:48;;;;;;;2.22;1.50;;;22.10;63.00;;;;;;5260661;26;84637;-72
2024/04/09 05:20:16;;;;;;;2.10;1.20;;;22.10;62.90;;;;;;5287159;26;85079;-72
2024/04/09 05:22:48;;;;;;;2.80;1.23;;;22.10;62.90;;;;;;5274357;26;85125;-71
2024/04/09 05:25:17;;;;;;;2.45;1.48;;;22.10;62.70;;;;;;5260813;26;90271;-71
2024/04/09 05:27:46;;;;;;;1.93;1.20;;;22.10;62.80;;;;;;5263650;26;84933;-71
2024/04/09 05:30:12;;;;;;;2.75;1.45;;;22.10;62.80;;;;;;5265762;26;84375;-72
2024/04/09 05:32:41;;;;;;;1.83;0.90;;;22.00;62.60;;;;;;5262661;26;84968;-71
2024/04/09 05:35:10;;;;;;;1.30;1.00;;;22.10;62.70;;;;;;5263741;26;84821;-71
2024/04/09 05:37:37;;;;;;;1.10;1.00;;;22.00;62.50;;;;;;5265740;26;84948;-71
2024/04/09 05:40:08;;;;;;;3.58;1.50;;;22.10;62.40;;;;;;5264873;26;84932;-72
2024/04/09 05:42:38;;;;;;;3.00;1.67;;;22.10;62.30;;;;;;5264091;26;85697;-72
2024/04/09 05:45:12;;;;;;;2.17;1.33;;;22.10;62.10;;;;;;5258908;26;84912;-71
2024/04/09 05:47:38;;;;;;;2.60;1.52;;;22.10;62.20;;;;;;5291738;26;85109;-71
2024/04/09 05:50:05;;;;;;;3.83;1.10;;;22.10;62.50;;;;;;5265143;26;84551;-72
2024/04/09 05:52:32;;;;;;;1.52;1.00;;;22.10;62.10;;;;;;5265067;26;86195;-72
2024/04/09 05:54:58;;;;;;;3.15;1.95;;;22.10;62.10;;;;;;5264101;26;84575;-71
2024/04/09 05:57:24;;;;;;;2.80;0.95;;;22.10;61.80;;;;;;5265875;26;84438;-71
2024/04/09 05:59:52;;;;;;;1.48;1.08;;;22.10;61.80;;;;;;5262459;26;84756;-72
2024/04/09 06:02:17;;;;;;;3.22;1.48;;;22.10;62.40;;;;;;5264637;26;85391;-72
2024/04/09 06:04:45;;;;;;;1.65;0.98;;;22.10;61.90;;;;;;5264818;26;85006;-71
2024/04/09 06:07:11;;;;;;;2.78;1.50;;;22.10;62.00;;;;;;5260914;26;85140;-72
2024/04/09 06:09:37;;;;;;;3.65;1.38;;;22.10;61.70;;;;;;5263492;26;84910;-72
2024/04/09 06:12:04;;;;;;;2.28;1.23;;;22.00;61.80;;;;;;5262174;26;86270;-72
2024/04/09 06:14:30;;;;;;;1.70;0.93;;;22.10;61.90;;;;;;5263390;26;84921;-72
2024/04/09 06:16:55;;;;;;;2.58;1.40;;;22.10;61.70;;;;;;5266153;26;84941;-73
2024/04/09 06:19:21;;;;;;;2.55;1.40;;;22.10;62.20;;;;;;5266229;26;84340;-72
2024/04/09 06:21:47;;;;;;;2.05;0.95;;;22.00;62.40;;;;;;5264687;26;84284;-72
2024/04/09 06:24:13;;;;;;;1.90;1.10;;;22.00;62.00;;;;;;5261937;26;85526;-72
2024/04/09 06:26:38;;;;;;;2.38;1.15;;;22.10;62.20;;;;;;5291399;26;84443;-72
2024/04/09 06:29:04;;;;;;;1.50;0.85;;;22.00;62.10;;;;;;5264417;26;84750;-71
2024/04/09 06:31:30;;;;;;;5.57;1.98;;;22.00;62.10;;;;;;5264816;26;85609;-71
2024/04/09 06:33:56;;;;;;;1.95;1.05;;;22.10;62.10;;;;;;5263951;26;85516;-72
2024/04/09 06:36:22;;;;;;;1.60;0.93;;;22.10;62.10;;;;;;5263322;26;84992;-71
2024/04/09 06:38:48;;;;;;;1.27;0.80;;;22.00;62.20;;;;;;5292245;26;85629;-72
2024/04/09 06:41:15;;;;;;;3.88;1.58;;;22.00;62.50;;;;;;5262946;26;86277;-71
2024/04/09 06:43:40;;;;;;;3.25;1.40;;;22.00;62.80;;;;;;5263031;26;88225;-73
2024/04/09 06:46:07;;;;;;;2.97;1.13;;;22.00;61.80;;;;;;5261437;26;85127;-72
2024/04/09 06:48:32;;;;;;;1.95;1.52;;;22.00;61.90;;;;;;5250629;26;85261;-72
2024/04/09 06:50:58;;;;;;;3.80;1.67;;;22.10;62.70;;;;;;5260771;26;86325;-72
2024/04/09 06:53:24;;;;;;;4.35;1.75;;;22.20;62.10;;;;;;5262470;26;85012;-73
2024/04/09 06:55:50;;;;;;;3.88;1.70;;;22.30;61.50;;;;;;5263086;26;84457;-73
2024/04/09 06:58:16;;;;;;;2.17;1.42;;;22.40;61.30;;;;;;5262761;26;84903;-72
2024/04/09 07:00:41;;;;;;;5.38;1.52;;;22.50;61.30;;;;;;5263358;26;85773;-72
2024/04/09 07:03:07;;;;;;;3.10;1.40;;;22.60;60.90;;;;;;5263802;26;84502;-72
2024/04/09 07:05:33;;;;;;;3.25;1.52;;;22.60;60.60;;;;;;5263319;26;84891;-72
2024/04/09 07:08:00;;;;;;;2.80;1.42;;;22.60;60.80;;;;;;5262699;26;84570;-72
2024/04/09 07:10:29;;;;;;;2.90;1.30;;;22.50;61.40;;;;;;5262723;26;85441;-73
2024/04/09 07:12:55;;;;;;;4.93;1.75;;;22.40;61.80;;;;;;5266429;26;85587;-73
2024/04/09 07:15:26;;;;;;;2.05;1.00;;;22.50;61.70;;;;;;5267628;26;84593;-71
2024/04/09 07:17:53;;;;;;;2.65;1.02;;;22.60;61.40;;;;;;5259221;26;84481;-72
2024/04/09 07:20:18;;;;;;;2.45;1.13;;;22.60;61.30;;;;;;5259681;26;85569;-72
2024/04/09 07:22:44;;;;;;;5.03;1.30;;;22.50;61.40;;;;;;5292300;26;86292;-71
2024/04/09 07:25:12;;;;;;;2.88;1.60;;;22.50;61.80;;;;;;5262044;26;84564;-72
2024/04/09 07:27:39;;;;;;;1.77;1.00;;;22.40;62.20;;;;;;5290953;26;85075;-70
2024/04/09 07:30:06;;;;;;;3.22;1.48;;;22.50;62.20;;;;;;5259930;26;85073;-72
2024/04/09 07:32:32;;;;;;;3.90;1.58;;;22.60;61.50;;;;;;5247447;26;86138;-72
2024/04/09 07:34:58;;;;;;;3.55;1.25;;;22.60;60.70;;;;;;5256017;26;85114;-72
2024/04/09 07:37:24;;;;;;;3.67;1.83;;;22.60;60.90;;;;;;5259545;26;85280;-72
2024/04/09 07:39:50;;;;;;;4.32;1.27;;;22.50;61.10;;;;;;5258242;26;85750;-72
2024/04/09 07:42:15;;;;;;;5.38;1.65;;;22.40;61.20;;;;;;5228487;26;84864;-72
2024/04/09 07:44:41;;;;;;;13.95;3.03;;;22.50;61.10;;;;;;5260400;26;85035;-72
2024/04/09 07:47:10;;;;;;;19.70;4.07;;;22.60;60.20;;;;;;5260280;26;85134;-72
2024/04/09 07:49:36;;;;;;;11.70;3.03;;;22.70;59.70;;;;;;5256037;26;87190;-73
2024/04/09 07:52:05;;;;;;;15.68;5.07;;;22.60;59.60;;;;;;5250705;26;84440;-72
2024/04/09 07:54:31;;;;;;;20.25;5.57;;;22.50;59.30;;;;;;5258547;26;84990;-71
2024/04/09 07:56:58;;;;;;;17.00;3.65;;;22.40;59.70;;;;;;5235055;26;85057;-71
2024/04/09 07:59:23;;;;;;;24.38;5.80;;;22.40;59.70;;;;;;5262134;26;85646;-72
2024/04/09 08:01:51;;;;;;;19.23;4.68;;;22.50;59.50;;;;;;5256333;26;86625;-73
2024/04/09 08:04:18;;;;;;;17.77;4.30;;;22.40;59.50;;;;;;5263144;26;84905;-73
2024/04/09 08:06:44;;;;;;;13.95;3.83;;;22.40;59.80;;;;;;5256621;26;84398;-72
2024/04/09 08:09:11;;;;;;;26.35;5.07;;;22.30;59.80;;;;;;5264380;26;85469;-72
2024/04/09 08:11:41;;;;;;;16.95;5.57;;;22.30;59.90;;;;;;5269693;26;85281;-71
2024/04/09 08:14:09;;;;;;;20.05;4.65;;;22.30;60.10;;;;;;5262544;26;84237;-72
2024/04/09 08:16:35;;;;;;;24.52;4.50;;;22.20;59.90;;;;;;5260607;26;84904;-71
2024/04/09 08:19:03;;;;;;;17.77;4.60;;;22.20;56.30;;;;;;5260738;26;86630;-71
2024/04/09 08:21:29;;;;;;;21.33;3.28;;;22.10;56.20;;;;;;5263329;26;85084;-73
2024/04/09 08:23:56;;;;;;;18.48;4.47;;;22.00;56.60;;;;;;5263357;26;84964;-71
2024/04/09 08:26:23;;;;;;;16.73;3.13;;;22.10;56.50;;;;;;5261407;26;85163;-71
2024/04/09 08:28:53;;;;;;;17.00;3.85;;;22.00;57.00;;;;;;5261403;26;86600;-72
2024/04/09 08:31:28;;;;;;;;;;;22.00;57.10;;;;;;5289309;26;85457;-72
2024/04/09 08:33:55;;;;;;;11.13;3.10;;;21.90;52.90;;;;;;5258156;26;85579;-72
2024/04/09 08:36:27;;;;;;;9.77;2.95;;;21.90;52.40;;;;;;5261741;26;84704;-71
2024/04/09 08:38:53;;;;;;;10.13;2.67;;;21.90;53.60;;;;;;5259896;26;87220;-71
2024/04/09 08:41:20;;;;;;;11.60;2.60;;;21.90;54.60;;;;;;5273372;26;85924;-72
2024/04/09 08:43:48;;;;;;;10.68;3.13;;;22.00;55.30;;;;;;5262958;26;84897;-72
2024/04/09 08:46:14;;;;;;;22.65;4.85;;;22.10;56.40;;;;;;5263165;26;84763;-72
2024/04/09 08:48:40;;;;;;;21.17;3.15;;;22.10;57.10;;;;;;5261191;26;85780;-71
2024/04/09 08:51:10;;;;;;;18.00;4.53;;;22.10;57.40;;;;;;5262380;26;85013;-71
2024/04/09 08:53:39;;;;;;;16.08;3.78;;;22.20;57.20;;;;;;5264400;26;84778;-72
2024/04/09 08:56:06;;;;;;;10.02;3.03;;;22.20;57.20;;;;;;5262103;26;84438;-72
2024/04/09 08:58:32;;;;;;;13.00;3.10;;;22.30;57.40;;;;;;5292009;26;86501;-73
2024/04/09 09:00:58;;;;;;;14.02;3.35;;;22.30;57.60;;;;;;5262496;26;84851;-71
2024/04/09 09:03:24;;;;;;;14.15;4.20;;;22.30;57.90;;;;;;5261275;26;85134;-73
2024/04/09 09:06:01;;;;;;;11.20;3.03;;;22.30;58.10;;;;;;5264510;26;84600;-72
2024/04/09 09:08:26;;;;;;;13.65;4.47;;;22.30;58.00;;;;;;5265159;26;84741;-70
2024/04/09 09:10:55;;;;;;;10.35;3.33;;;22.30;58.10;;;;;;5291331;26;86343;-71
2024/04/09 09:13:21;;;;;;;11.52;3.25;;;22.30;58.30;;;;;;5262828;26;85291;-71
2024/04/09 09:15:58;;;;;;;15.98;4.40;;;22.30;58.40;;;;;;5289132;26;84968;-72
2024/04/09 09:18:24;;;;;;;11.32;3.00;;;22.30;58.30;;;;;;5261692;26;85721;-71
2024/04/09 09:21:01;;;;;;;12.73;3.20;;;22.40;57.80;;;;;;5285653;26;86044;-72
2024/04/09 09:23:26;;;;;;;13.40;3.38;;;22.40;58.40;;;;;;5263883;26;84932;-72
2024/04/09 09:25:55;;;;;;;14.73;4.10;;;22.30;58.90;;;;;;5263827;26;84679;-72
2024/04/09 09:28:27;;;;;;;10.15;3.03;;;22.30;59.20;;;;;;5264323;26;84977;-71
2024/04/09 09:30:56;;;;;;;9.15;2.85;;;22.20;58.90;;;;;;5263545;26;84894;-72
2024/04/09 09:33:26;;;;;;;9.77;3.38;;;22.30;58.90;;;;;;5259699;26;85021;-72
2024/04/09 09:35:54;;;;;;;10.68;2.90;;;22.30;59.10;;;;;;5261087;26;85119;-72
2024/04/09 09:38:21;;;;;;;7.43;2.30;;;22.30;59.10;;;;;;5262699;26;85968;-72
2024/04/09 09:40:49;;;;;;;13.88;4.38;;;22.20;58.60;;;;;;5263291;26;85005;-72
2024/04/09 09:43:17;;;;;;;9.02;3.65;;;22.20;58.20;;;;;;5263810;26;85882;-72
2024/04/09 09:45:44;;;;;;;7.40;2.92;;;22.20;57.80;;;;;;5262662;26;84722;-73
2024/04/09 09:48:12;;;;;;;8.88;3.15;;;22.20;57.90;;;;;;5260467;26;85665;-71
2024/04/09 09:50:39;;;;;;;6.40;2.63;;;22.20;57.90;;;;;;5261120;26;84805;-72
2024/04/09 09:53:05;;;;;;;11.73;2.85;;;22.10;57.70;;;;;;5263741;26;84895;-72
2024/04/09 09:55:32;;;;;;;13.93;2.50;;;22.10;57.30;;;;;;5263872;26;85178;-71
2024/04/09 09:58:00;;;;;;;7.35;2.45;;;22.10;57.60;;;;;;5258984;26;87106;-72
2024/04/09 10:00:27;;;;;;;5.47;2.90;;;22.10;57.20;;;;;;5263371;26;84828;-72
2024/04/09 10:02:54;;;;;;;9.65;1.75;;;22.10;57.60;;;;;;5266855;26;85089;-71
2024/04/09 10:05:20;;;;;;;6.93;3.47;;;22.20;57.70;;;;;;5290421;26;84866;-73
2024/04/09 10:07:49;;;;;;;9.32;2.80;;;22.20;57.60;;;;;;5261008;26;85537;-72
2024/04/09 10:10:26;;;;;;;12.18;3.80;;;22.30;57.90;;;;;;5260129;26;90278;-72
2024/04/09 10:12:55;;;;;;;7.90;3.15;;;22.30;57.90;;;;;;5262347;26;85387;-72
2024/04/09 10:15:28;;;;;;;6.63;2.53;;;22.30;57.70;;;;;;5264460;26;85187;-72
2024/04/09 10:18:04;;;;;;;8.52;3.03;;;22.30;57.70;;;;;;5263262;26;85121;-72
2024/04/09 10:20:31;;;;;;;5.60;2.40;;;22.30;58.00;;;;;;5262659;26;86774;-72
2024/04/09 10:23:02;;;;;;;10.02;3.20;;;22.30;57.80;;;;;;5264675;26;84835;-71
2024/04/09 10:25:46;;;;;;;7.93;2.50;;;22.40;58.10;;;;;;5265179;26;84712;-73
2024/04/09 10:28:34;;;;;;;5.95;3.05;;;22.40;57.10;;;;;;5271095;26;88439;-72
2024/04/09 10:31:05;;;;;;;5.53;1.77;;;22.40;57.60;;;;;;5259634;26;86011;-72
2024/04/09 10:33:33;;;;;;;11.95;2.40;;;22.30;57.80;;;;;;5258767;26;84974;-72
2024/04/09 10:36:03;;;;;;;6.70;2.47;;;22.30;58.20;;;;;;5259539;26;84687;-72
2024/04/09 10:38:30;;;;;;;6.47;2.63;;;22.30;58.10;;;;;;5257426;26;85729;-73
2024/04/09 10:41:00;;;;;;;8.90;2.45;;;22.30;58.00;;;;;;5261715;26;85098;-72
2024/04/09 10:43:26;;;;;;;7.28;2.00;;;22.20;58.10;;;;;;5264571;26;84918;-74
2024/04/09 10:45:52;;;;;;;8.18;2.15;;;22.30;58.00;;;;;;5262401;26;84686;-73
2024/04/09 10:48:18;;;;;;;5.30;2.40;;;22.30;57.90;;;;;;5259432;26;85056;-72
2024/04/09 10:50:43;;;;;;;4.38;2.35;;;22.30;58.00;;;;;;5257452;26;84465;-72
2024/04/09 10:53:09;;;;;;;5.32;2.63;;;22.30;58.00;;;;;;5253725;26;84469;-72
2024/04/09 10:55:36;;;;;;;7.97;2.22;;;22.30;58.00;;;;;;5262006;26;85189;-72
2024/04/09 10:58:03;;;;;;;5.20;1.60;;;22.30;58.10;;;;;;5258356;26;86263;-72
2024/04/09 11:00:29;;;;;;;10.10;2.70;;;22.30;58.00;;;;;;5263316;26;85133;-72
2024/04/09 11:02:55;;;;;;;6.90;2.03;;;22.40;58.10;;;;;;5253542;26;84945;-73
2024/04/09 11:05:20;;;;;;;5.32;2.30;;;22.40;58.20;;;;;;5257570;26;84933;-73
2024/04/09 11:07:47;;;;;;;6.43;2.28;;;22.40;58.20;;;;;;5255776;26;86553;-72
2024/04/09 11:10:16;;;;;;;6.75;2.75;;;22.40;58.40;;;;;;5262685;26;90010;-72
2024/04/09 11:12:52;;;;;;;4.75;2.03;;;22.30;58.00;;;;;;5254720;26;84790;-72
2024/04/09 11:15:19;;;;;;;7.60;2.03;;;22.30;58.20;;;;;;5258112;26;84939;-72
2024/04/09 11:17:45;;;;;;;6.20;2.35;;;22.30;58.40;;;;;;5258578;26;85234;-72
2024/04/09 11:20:15;;;;;;;15.15;2.13;;;22.30;58.40;;;;;;5256090;26;85170;-73
2024/04/09 11:22:41;;;;;;;8.98;2.10;;;22.30;58.50;;;;;;5259677;26;84898;-72
2024/04/09 11:25:15;;;;;;;8.02;2.45;;;22.40;58.50;;;;;;5258290;26;85258;-72
2024/04/09 11:27:43;;;;;;;9.18;2.50;;;22.30;58.50;;;;;;5253609;26;87321;-73
2024/04/09 11:30:11;;;;;;;6.60;2.30;;;22.30;58.40;;;;;;5254909;26;84968;-72
2024/04/09 11:32:39;;;;;;;8.50;3.28;;;22.40;58.80;;;;;;5242361;26;85169;-73
2024/04/09 11:35:16;;;;;;;11.43;2.40;;;22.30;58.80;;;;;;5276110;26;84753;-72
2024/04/09 11:37:52;;;;;;;7.72;2.97;;;22.40;58.70;;;;;;5258843;26;86264;-73
2024/04/09 11:40:23;;;;;;;7.32;1.95;;;22.30;58.70;;;;;;5246861;26;91849;-72
2024/04/09 11:42:53;;;;;;;6.65;1.77;;;22.30;58.70;;;;;;5224011;26;84375;-72
2024/04/09 11:45:22;;;;;;;14.02;2.35;;;22.30;58.80;;;;;;5225187;26;85185;-72
2024/04/09 11:47:49;;;;;;;6.72;2.50;;;22.30;59.10;;;;;;5223897;26;84665;-72
2024/04/09 11:50:15;;;;;;;6.68;2.15;;;22.30;59.20;;;;;;5225178;26;85350;-74
2024/04/09 11:52:41;;;;;;;5.50;1.92;;;22.30;59.20;;;;;;5224286;26;84898;-73
2024/04/09 11:55:10;;;;;;;7.40;1.90;;;22.30;59.20;;;;;;5226137;26;85336;-72
2024/04/09 11:57:36;;;;;;;6.40;2.42;;;22.30;59.20;;;;;;5224252;26;86286;-72
2024/04/09 12:00:02;;;;;;;6.00;2.05;;;22.20;59.30;;;;;;5227453;26;84662;-72
2024/04/09 12:02:28;;;;;;;6.43;2.10;;;22.30;59.30;;;;;;5234879;26;84397;-73
2024/04/09 12:04:54;;;;;;;9.63;1.95;;;22.30;59.40;;;;;;5256850;26;84794;-72
2024/04/09 12:07:19;;;;;;;9.07;1.80;;;22.30;59.20;;;;;;5222757;26;86043;-72
2024/04/09 12:09:45;;;;;;;13.32;2.83;;;22.30;59.30;;;;;;5219841;26;85099;-73
2024/04/09 12:12:11;;;;;;;6.88;1.75;;;22.20;60.30;;;;;;5208508;26;85940;-73
2024/04/09 12:14:37;;;;;;;6.07;2.22;;;22.30;59.70;;;;;;5196880;26;84655;-74
2024/04/09 12:17:07;;;;;;;6.80;1.83;;;22.30;59.50;;;;;;5206705;26;86693;-71
2024/04/09 12:19:33;;;;;;;5.32;2.28;;;22.30;59.50;;;;;;5191993;27;85819;-73
2024/04/09 12:21:59;;;;;;;6.60;1.80;;;22.30;59.50;;;;;;5202987;26;84943;-71
2024/04/09 12:24:27;;;;;;;7.10;2.47;;;22.30;59.60;;;;;;5203216;26;85298;-71
2024/04/09 12:26:54;;;;;;;7.82;2.00;;;22.40;59.60;;;;;;5205134;26;87904;-72
2024/04/09 12:29:22;;;;;;;7.35;2.15;;;22.30;59.60;;;;;;5212618;26;85951;-71
2024/04/09 12:31:48;;;;;;;4.57;1.30;;;22.30;58.40;;;;;;5213700;27;85326;-72
2024/04/09 12:34:15;;;;;;;7.30;1.90;;;22.30;57.60;;;;;;5261379;26;86069;-71
2024/04/09 12:36:40;;;;;;;7.03;1.73;;;22.20;57.80;;;;;;5234245;26;86312;-71
2024/04/09 12:39:06;;;;;;;4.80;2.17;;;22.20;58.70;;;;;;5229111;26;84985;-72
2024/04/09 12:41:32;;;;;;;6.40;2.20;;;22.30;58.80;;;;;;5230232;26;84479;-70
2024/04/09 12:43:57;;;;;;;10.25;2.35;;;22.40;58.90;;;;;;5225866;26;84833;-73
2024/04/09 12:46:24;;;;;;;8.32;2.28;;;22.30;58.20;;;;;;5230024;27;86407;-73